Time;durP1;ratioP1;P1;durP2;ratioP2;P2;SDS_P1;SDS_P2;PMS_P1;PMS_P2;Temp;Humidity;BMP_temperature;BMP_pressure;BME280_temperature;BME280_humidity;BME280_pressure;Samples;Min_cycle;Max_cycle;Signal;HPM_P1;HPM_P2
2023/08/25 00:01:40;;;;;;;7.88;2.03;;;20.60;99.90;;;;;;5016379;28;20041;-92
2023/08/25 00:04:06;;;;;;;8.07;2.25;;;20.60;99.90;;;;;;5015900;28;20071;-92
2023/08/25 00:06:31;;;;;;;4.35;1.88;;;20.50;99.90;;;;;;5016318;28;20277;-93
2023/08/25 00:08:57;;;;;;;5.82;1.85;;;20.50;99.90;;;;;;5011955;28;20030;-92
2023/08/25 00:11:23;;;;;;;5.07;1.90;;;20.40;99.90;;;;;;5032231;28;20042;-92
2023/08/25 00:13:48;;;;;;;5.25;1.92;;;20.40;99.90;;;;;;5015659;28;20017;-91
2023/08/25 00:16:14;;;;;;;6.18;2.50;;;20.40;99.90;;;;;;5015861;28;20120;-92
2023/08/25 00:18:40;;;;;;;6.82;2.10;;;20.40;99.90;;;;;;5016720;28;20362;-93
2023/08/25 00:21:05;;;;;;;4.03;2.05;;;20.30;99.90;;;;;;5015823;28;20112;-93
2023/08/25 00:23:31;;;;;;;6.30;2.13;;;20.30;99.90;;;;;;5033348;28;20033;-92
2023/08/25 00:25:57;;;;;;;11.27;2.35;;;20.40;99.90;;;;;;5016224;28;20373;-92
2023/08/25 00:28:23;;;;;;;8.77;2.13;;;20.30;99.90;;;;;;5015336;28;20041;-89
2023/08/25 00:30:49;;;;;;;4.82;2.13;;;20.30;99.90;;;;;;5015890;28;20124;-93
2023/08/25 00:33:15;;;;;;;7.30;2.13;;;20.20;99.90;;;;;;5015528;28;20112;-90
2023/08/25 00:35:42;;;;;;;7.57;2.20;;;20.20;99.90;;;;;;5016438;28;20029;-93
2023/08/25 00:38:08;;;;;;;4.00;2.13;;;20.20;99.90;;;;;;5015006;28;20044;-91
2023/08/25 00:40:37;;;;;;;9.10;2.30;;;20.20;99.90;;;;;;5016028;28;20485;-94
2023/08/25 00:43:03;;;;;;;4.95;2.03;;;20.20;99.90;;;;;;5015425;28;20037;-92
2023/08/25 00:45:32;;;;;;;6.32;2.20;;;20.20;99.90;;;;;;5015298;28;20497;-91
2023/08/25 00:47:58;;;;;;;4.53;2.08;;;20.20;99.90;;;;;;5015646;28;20030;-92
2023/08/25 00:50:24;;;;;;;13.75;2.17;;;20.20;99.90;;;;;;5015766;28;20040;-93
2023/08/25 00:52:52;;;;;;;7.00;2.10;;;20.10;99.90;;;;;;5015048;28;20018;-93
2023/08/25 00:55:18;;;;;;;5.65;1.90;;;20.10;99.90;;;;;;5015410;28;20490;-92
2023/08/25 00:57:47;;;;;;;5.80;2.10;;;20.10;99.90;;;;;;5004216;28;20068;-91
2023/08/25 01:00:14;;;;;;;6.63;2.08;;;20.10;99.90;;;;;;5024909;28;20046;-92
2023/08/25 01:02:40;;;;;;;6.40;2.22;;;20.10;99.90;;;;;;5016373;28;20040;-91
2023/08/25 01:05:07;;;;;;;5.68;2.28;;;20.10;99.90;;;;;;5014902;28;20465;-93
2023/08/25 01:07:33;;;;;;;4.97;2.10;;;20.20;99.90;;;;;;5015267;28;20029;-93
2023/08/25 01:09:59;;;;;;;7.70;2.10;;;20.20;99.90;;;;;;5010624;28;20030;-92
2023/08/25 01:12:54;;;;;;;6.50;2.15;;;20.10;99.90;;;;;;4995806;28;20441;-90
2023/08/25 01:15:29;;;;;;;6.47;2.28;;;20.00;99.90;;;;;;4995660;28;20113;-92
2023/08/25 01:18:04;;;;;;;5.82;1.95;;;20.10;99.90;;;;;;5011922;28;20111;-91
2023/08/25 01:20:31;;;;;;;9.95;2.25;;;20.10;99.90;;;;;;5014865;28;20134;-91
2023/08/25 01:23:08;;;;;;;6.20;2.43;;;20.00;99.90;;;;;;5014640;28;20113;-90
2023/08/25 01:25:35;;;;;;;8.93;2.35;;;20.00;99.90;;;;;;5015673;28;20030;-93
2023/08/25 01:28:03;;;;;;;11.10;2.45;;;20.00;99.90;;;;;;5016431;28;20036;-91
2023/08/25 01:30:30;;;;;;;;;;;20.00;99.90;;;;;;5016877;28;20033;-92
2023/08/25 01:32:57;;;;;;;8.85;2.22;;;19.90;99.90;;;;;;5015948;28;19952;-92
2023/08/25 01:35:46;;;;;;;11.20;2.45;;;19.80;99.90;;;;;;5015082;28;20026;-93
2023/08/25 01:38:27;;;;;;;9.27;2.35;;;19.90;99.90;;;;;;5015454;28;20075;-92
2023/08/25 01:41:16;;;;;;;6.43;2.47;;;19.90;99.90;;;;;;5030606;28;20025;-91
2023/08/25 01:43:47;;;;;;;9.35;2.78;;;19.90;99.90;;;;;;5031167;28;20036;-90
2023/08/25 01:46:15;;;;;;;8.55;2.40;;;19.90;99.90;;;;;;5014777;28;20028;-92
2023/08/25 01:48:43;;;;;;;8.07;2.58;;;19.80;99.90;;;;;;5014474;28;20374;-92
2023/08/25 01:51:13;;;;;;;6.10;2.20;;;19.80;99.90;;;;;;5014756;28;20124;-93
2023/08/25 01:53:41;;;;;;;6.95;2.30;;;19.70;99.90;;;;;;5005954;28;20490;-91
2023/08/25 01:56:07;;;;;;;;;;;19.80;99.90;;;;;;5014598;28;20195;-92
2023/08/25 01:58:33;;;;;;;8.85;2.70;;;19.80;99.90;;;;;;5014163;28;19909;-91
2023/08/25 02:00:58;;;;;;;11.60;2.30;;;19.80;99.90;;;;;;5014487;28;20021;-92
2023/08/25 02:03:24;;;;;;;10.75;2.92;;;19.80;99.90;;;;;;5014150;28;20030;-90
2023/08/25 02:05:49;;;;;;;8.02;2.63;;;19.60;99.90;;;;;;5014329;28;20254;-90
2023/08/25 02:08:15;;;;;;;8.55;2.95;;;19.70;99.90;;;;;;5014525;28;20049;-91
2023/08/25 02:10:41;;;;;;;8.70;2.70;;;19.70;99.90;;;;;;5014191;28;20180;-93
2023/08/25 02:13:06;;;;;;;8.95;2.33;;;19.70;99.90;;;;;;5014675;28;20120;-90
2023/08/25 02:15:32;;;;;;;8.23;2.45;;;19.60;99.90;;;;;;5014691;28;20053;-91
2023/08/25 02:17:58;;;;;;;11.05;3.35;;;19.70;99.90;;;;;;5031355;28;20020;-93
2023/08/25 02:20:26;;;;;;;8.88;3.15;;;19.70;99.90;;;;;;5031776;28;20025;-92
2023/08/25 02:22:54;;;;;;;;;;;19.70;99.90;;;;;;5014216;28;20022;-93
2023/08/25 02:25:20;;;;;;;;;;;19.60;99.90;;;;;;4995172;28;19912;-91
2023/08/25 02:27:47;;;;;;;9.10;2.85;;;19.60;99.90;;;;;;4994962;28;19905;-92
2023/08/25 02:30:13;;;;;;;8.15;2.72;;;19.50;99.90;;;;;;5012008;28;20046;-93
2023/08/25 02:32:39;;;;;;;5.95;2.50;;;19.50;99.90;;;;;;4996678;28;20120;-93
2023/08/25 02:35:05;;;;;;;11.65;3.08;;;19.40;99.90;;;;;;5015159;28;20052;-93
2023/08/25 02:37:31;;;;;;;9.95;2.97;;;19.50;99.90;;;;;;4994738;28;20124;-93
2023/08/25 02:39:56;;;;;;;8.25;2.60;;;19.70;99.90;;;;;;5030491;28;20453;-92
2023/08/25 02:42:22;;;;;;;9.32;2.50;;;19.70;99.90;;;;;;5013814;28;20031;-92
2023/08/25 02:44:48;;;;;;;6.55;2.70;;;19.70;99.90;;;;;;5032290;28;20104;-92
2023/08/25 02:47:13;;;;;;;12.02;2.90;;;19.70;99.90;;;;;;5013256;28;20025;-93
2023/08/25 02:49:42;;;;;;;11.77;2.55;;;19.70;99.90;;;;;;5013243;28;20253;-91
2023/08/25 02:52:10;;;;;;;;;;;19.80;99.90;;;;;;5014065;28;20021;-90
2023/08/25 02:54:35;;;;;;;8.20;2.60;;;19.80;99.90;;;;;;5013456;28;20418;-90
2023/08/25 02:57:01;;;;;;;8.63;2.90;;;19.70;99.90;;;;;;5031369;28;20171;-92
2023/08/25 02:59:27;;;;;;;8.50;2.80;;;19.60;99.90;;;;;;5013941;28;20028;-90
2023/08/25 03:01:52;;;;;;;7.55;2.50;;;19.60;99.90;;;;;;5013167;28;20409;-90
2023/08/25 03:04:18;;;;;;;10.43;2.88;;;19.70;99.90;;;;;;5013436;28;20083;-92
2023/08/25 03:06:44;;;;;;;7.40;2.70;;;19.70;99.90;;;;;;4996850;28;20053;-92
2023/08/25 03:09:10;;;;;;;6.78;2.75;;;19.70;99.90;;;;;;4994504;28;20093;-92
2023/08/25 03:11:35;;;;;;;9.13;2.55;;;19.60;99.90;;;;;;5013799;28;20052;-92
2023/08/25 03:14:01;;;;;;;11.60;2.80;;;19.70;99.90;;;;;;5013567;28;20026;-91
2023/08/25 03:16:27;;;;;;;7.82;2.50;;;19.60;99.90;;;;;;5013221;28;20033;-91
2023/08/25 03:18:52;;;;;;;8.50;2.55;;;19.60;99.90;;;;;;5002074;28;20064;-90
2023/08/25 03:21:18;;;;;;;8.93;2.60;;;19.60;99.90;;;;;;4994279;28;20385;-93
2023/08/25 03:23:44;;;;;;;6.93;2.55;;;19.60;99.90;;;;;;5004995;28;20572;-92
2023/08/25 03:26:12;;;;;;;8.02;2.70;;;19.60;99.90;;;;;;5013257;28;20072;-93
2023/08/25 03:28:38;;;;;;;6.70;2.33;;;19.50;99.90;;;;;;5013083;28;20072;-90
2023/08/25 03:31:03;;;;;;;11.10;2.83;;;19.60;99.90;;;;;;5016313;28;20037;-90
2023/08/25 03:33:29;;;;;;;7.45;2.50;;;19.50;99.90;;;;;;5014188;28;20156;-90
2023/08/25 03:35:55;;;;;;;7.32;2.42;;;19.50;99.90;;;;;;5012542;28;20029;-89
2023/08/25 03:38:20;;;;;;;9.63;2.63;;;19.50;99.90;;;;;;4997638;28;20036;-94
2023/08/25 03:40:46;;;;;;;10.68;2.22;;;19.40;99.90;;;;;;4996587;28;20398;-90
2023/08/25 03:43:11;;;;;;;10.65;2.58;;;19.40;99.90;;;;;;5016243;28;20026;-92
2023/08/25 03:45:37;;;;;;;10.50;2.28;;;19.30;99.90;;;;;;5015957;28;20025;-93
2023/08/25 03:48:05;;;;;;;9.68;2.42;;;19.30;99.90;;;;;;5015978;28;20025;-93
2023/08/25 03:50:31;;;;;;;;;;;19.20;99.90;;;;;;5015080;28;20034;-91
2023/08/25 03:52:56;;;;;;;8.73;2.22;;;19.10;99.90;;;;;;5014802;28;19955;-91
2023/08/25 03:55:22;;;;;;;8.38;2.33;;;19.10;99.90;;;;;;5012016;28;20406;-91
2023/08/25 03:57:48;;;;;;;9.15;2.53;;;19.10;99.90;;;;;;5014973;28;20022;-93
2023/08/25 04:00:17;;;;;;;6.20;1.88;;;19.10;99.90;;;;;;5015484;28;20041;-91
2023/08/25 04:02:42;;;;;;;5.95;2.08;;;19.00;99.90;;;;;;5034136;28;20112;-91
2023/08/25 04:05:08;;;;;;;6.03;2.03;;;19.00;99.90;;;;;;5016688;28;20048;-91
2023/08/25 04:07:35;;;;;;;8.32;2.08;;;19.00;99.90;;;;;;5015682;28;20100;-91
2023/08/25 04:10:01;;;;;;;8.52;2.13;;;19.00;99.90;;;;;;5016916;28;20053;-92
2023/08/25 04:12:26;;;;;;;7.45;2.15;;;19.00;99.90;;;;;;5015519;28;20030;-92
2023/08/25 04:14:57;;;;;;;7.03;2.03;;;19.00;99.90;;;;;;5039289;28;20030;-92
2023/08/25 04:17:30;;;;;;;10.27;2.40;;;19.00;99.90;;;;;;5029725;28;20021;-90
2023/08/25 04:20:18;;;;;;;6.18;2.03;;;19.00;99.90;;;;;;5025575;28;20171;-91
2023/08/25 04:23:09;;;;;;;9.77;2.20;;;19.00;99.90;;;;;;5046468;28;20061;-92
2023/08/25 04:25:35;;;;;;;6.78;2.00;;;19.00;99.90;;;;;;5038394;28;20017;-90
2023/08/25 04:28:01;;;;;;;13.48;2.10;;;18.90;99.90;;;;;;5019896;28;20030;-91
2023/08/25 04:30:26;;;;;;;5.28;2.13;;;19.00;99.90;;;;;;5015897;28;20040;-92
2023/08/25 04:32:52;;;;;;;8.27;2.15;;;18.90;99.90;;;;;;5014896;28;20036;-90
2023/08/25 04:35:18;;;;;;;8.45;2.40;;;18.80;99.90;;;;;;5015278;28;20034;-93
2023/08/25 04:37:50;;;;;;;7.97;1.80;;;18.80;99.90;;;;;;5009295;28;20029;-92
2023/08/25 04:40:20;;;;;;;10.43;2.38;;;18.60;99.90;;;;;;5017595;28;20466;-92
2023/08/25 04:42:46;;;;;;;8.65;2.28;;;18.70;99.90;;;;;;5019691;28;20907;-90
2023/08/25 04:45:13;;;;;;;8.77;2.55;;;18.70;99.90;;;;;;5014965;28;20119;-92
2023/08/25 04:47:39;;;;;;;12.57;2.22;;;18.70;99.90;;;;;;5027388;28;20080;-89
2023/08/25 04:50:07;;;;;;;10.20;2.33;;;18.70;99.90;;;;;;5030238;28;20104;-89
2023/08/25 04:52:36;;;;;;;6.80;2.40;;;18.70;99.90;;;;;;5012973;28;20489;-88
2023/08/25 04:55:05;;;;;;;5.97;2.10;;;18.70;99.90;;;;;;5029757;28;20057;-92
2023/08/25 04:57:31;;;;;;;8.45;2.05;;;18.70;99.90;;;;;;5030937;28;20524;-92
2023/08/25 04:59:57;;;;;;;7.95;2.35;;;18.70;99.90;;;;;;5014484;28;20171;-89
2023/08/25 05:02:23;;;;;;;7.13;1.90;;;18.70;99.90;;;;;;5014419;28;20371;-89
2023/08/25 05:04:49;;;;;;;7.22;2.05;;;18.60;99.90;;;;;;5014281;28;20036;-90
2023/08/25 05:07:15;;;;;;;12.15;2.42;;;18.50;99.90;;;;;;5032031;28;20032;-89
2023/08/25 05:09:40;;;;;;;11.23;2.13;;;18.60;99.90;;;;;;5014462;28;20039;-91
2023/08/25 05:12:07;;;;;;;5.28;1.95;;;18.70;99.90;;;;;;5014302;28;20017;-89
2023/08/25 05:14:33;;;;;;;9.05;2.30;;;18.70;99.90;;;;;;5014310;28;20072;-91
2023/08/25 05:16:59;;;;;;;7.10;2.15;;;18.70;99.90;;;;;;5030966;28;20415;-88
2023/08/25 05:19:24;;;;;;;5.95;1.90;;;18.80;99.90;;;;;;5029942;28;20389;-90
2023/08/25 05:21:50;;;;;;;11.63;2.00;;;18.60;99.90;;;;;;5029968;28;20028;-88
2023/08/25 05:24:24;;;;;;;7.30;2.08;;;18.70;99.90;;;;;;5031373;28;20060;-89
2023/08/25 05:26:51;;;;;;;7.57;2.15;;;18.60;99.90;;;;;;5030972;28;20029;-89
2023/08/25 05:29:25;;;;;;;7.40;2.10;;;18.60;99.90;;;;;;5013060;28;20038;-91
2023/08/25 05:31:51;;;;;;;7.07;2.17;;;18.70;99.90;;;;;;5031016;28;20053;-90
2023/08/25 05:34:17;;;;;;;7.90;2.15;;;18.70;99.90;;;;;;5029385;28;20067;-88
2023/08/25 05:36:43;;;;;;;7.72;1.90;;;18.70;99.90;;;;;;5030944;28;20049;-89
2023/08/25 05:39:09;;;;;;;7.40;2.13;;;18.70;99.90;;;;;;5012983;28;20022;-89
2023/08/25 05:41:35;;;;;;;11.48;2.10;;;18.60;99.90;;;;;;5013042;28;20136;-88
2023/08/25 05:44:01;;;;;;;9.75;2.35;;;18.60;99.90;;;;;;5030489;28;20034;-88
2023/08/25 05:46:29;;;;;;;5.32;2.13;;;18.60;99.90;;;;;;5031405;28;20026;-88
2023/08/25 05:48:54;;;;;;;6.38;1.98;;;18.60;99.90;;;;;;5012775;28;20034;-90
2023/08/25 05:51:20;;;;;;;5.78;2.10;;;18.70;99.90;;;;;;5012257;28;20041;-90
2023/08/25 05:53:46;;;;;;;10.38;2.17;;;18.70;99.90;;;;;;5029916;28;20014;-91
2023/08/25 05:56:11;;;;;;;6.10;1.95;;;18.80;99.90;;;;;;5030364;28;20033;-90
2023/08/25 05:58:37;;;;;;;8.93;2.13;;;18.70;99.90;;;;;;5012746;28;20025;-89
2023/08/25 06:01:02;;;;;;;10.48;2.20;;;18.60;99.90;;;;;;5030364;28;20092;-91
2023/08/25 06:03:28;;;;;;;8.63;2.10;;;18.70;99.90;;;;;;5031190;28;20060;-90
2023/08/25 06:05:54;;;;;;;7.50;1.83;;;18.70;99.90;;;;;;5029918;28;20025;-89
2023/08/25 06:08:20;;;;;;;7.88;2.00;;;18.70;99.90;;;;;;5030040;28;20038;-89
2023/08/25 06:10:46;;;;;;;6.40;1.90;;;18.70;99.90;;;;;;5012512;28;20088;-88
2023/08/25 06:13:13;;;;;;;11.00;2.08;;;18.70;99.90;;;;;;5030269;28;20018;-89
2023/08/25 06:15:39;;;;;;;12.93;2.47;;;18.70;99.90;;;;;;5030173;28;20080;-89
2023/08/25 06:18:04;;;;;;;8.15;1.92;;;18.80;99.90;;;;;;5029104;28;20022;-89
2023/08/25 06:20:30;;;;;;;7.05;2.10;;;18.80;99.90;;;;;;5029953;28;20017;-88
2023/08/25 06:22:57;;;;;;;8.75;2.25;;;18.80;99.90;;;;;;5030697;28;20107;-89
2023/08/25 06:25:23;;;;;;;10.07;2.33;;;18.70;99.90;;;;;;5012431;28;20022;-90
2023/08/25 06:27:48;;;;;;;6.55;2.10;;;18.70;99.90;;;;;;5029799;28;20031;-89
2023/08/25 06:30:16;;;;;;;8.77;2.40;;;18.80;99.90;;;;;;5011999;28;20478;-89
2023/08/25 06:32:42;;;;;;;8.13;2.07;;;18.70;99.90;;;;;;5027813;28;20087;-88
2023/08/25 06:35:08;;;;;;;9.20;1.90;;;18.60;99.90;;;;;;5010370;28;20418;-90
2023/08/25 06:37:33;;;;;;;11.43;2.20;;;18.60;99.90;;;;;;5010532;28;20049;-89
2023/08/25 06:39:59;;;;;;;5.47;1.92;;;18.70;99.90;;;;;;5011149;28;20018;-90
2023/08/25 06:42:25;;;;;;;6.75;2.28;;;18.70;99.90;;;;;;5009138;28;20026;-90
2023/08/25 06:44:50;;;;;;;10.45;1.95;;;18.80;99.90;;;;;;4992848;28;20901;-89
2023/08/25 06:47:16;;;;;;;7.53;2.13;;;18.80;99.90;;;;;;4992599;28;20120;-90
2023/08/25 06:49:42;;;;;;;6.15;1.83;;;18.90;99.90;;;;;;5007173;28;20041;-90
2023/08/25 06:52:07;;;;;;;5.18;1.83;;;18.90;99.90;;;;;;5029941;28;20118;-90
2023/08/25 06:54:33;;;;;;;12.48;2.03;;;18.90;99.90;;;;;;5012175;28;20030;-90
2023/08/25 06:56:58;;;;;;;7.60;2.03;;;18.90;99.90;;;;;;5030565;28;20022;-90
2023/08/25 06:59:24;;;;;;;5.00;1.70;;;18.90;99.90;;;;;;5029837;28;20113;-90
2023/08/25 07:01:50;;;;;;;11.25;2.03;;;18.90;99.90;;;;;;5029917;28;20041;-90
2023/08/25 07:04:15;;;;;;;10.25;2.35;;;19.00;99.90;;;;;;5029421;28;20034;-89
2023/08/25 07:06:41;;;;;;;8.38;2.10;;;18.90;99.90;;;;;;5024325;28;20040;-90
2023/08/25 07:09:06;;;;;;;4.60;1.60;;;18.70;99.90;;;;;;5028979;28;20037;-90
2023/08/25 07:11:32;;;;;;;7.07;1.77;;;18.70;99.90;;;;;;5029620;28;20037;-89
2023/08/25 07:13:58;;;;;;;7.05;1.80;;;18.60;99.90;;;;;;5030329;28;20025;-89
2023/08/25 07:16:25;;;;;;;6.75;1.63;;;18.60;99.90;;;;;;5012009;28;20033;-88
2023/08/25 07:18:51;;;;;;;9.13;1.83;;;18.60;99.90;;;;;;5011869;28;20026;-90
2023/08/25 07:21:16;;;;;;;7.00;1.75;;;18.60;99.90;;;;;;5028319;28;20136;-91
2023/08/25 07:23:42;;;;;;;11.00;1.85;;;18.60;99.90;;;;;;5028867;28;20063;-89
2023/08/25 07:26:08;;;;;;;11.20;1.80;;;18.70;99.90;;;;;;5029351;28;20029;-88
2023/08/25 07:28:34;;;;;;;5.90;1.40;;;18.60;99.90;;;;;;5029180;28;20116;-89
2023/08/25 07:31:00;;;;;;;6.22;1.50;;;18.60;99.90;;;;;;5012389;28;20244;-90
2023/08/25 07:33:26;;;;;;;7.78;1.52;;;18.60;99.90;;;;;;5029348;28;20029;-90
2023/08/25 07:35:52;;;;;;;9.57;1.75;;;18.60;99.90;;;;;;5019719;28;20037;-90
2023/08/25 07:38:18;;;;;;;5.30;1.40;;;18.60;99.90;;;;;;5009649;28;20434;-91
2023/08/25 07:40:43;;;;;;;4.50;1.52;;;18.80;99.90;;;;;;5009460;28;20033;-90
2023/08/25 07:43:09;;;;;;;5.68;1.50;;;18.90;99.90;;;;;;5009381;28;20032;-91
2023/08/25 07:45:36;;;;;;;8.88;1.60;;;18.90;99.90;;;;;;5009427;28;20060;-90
2023/08/25 07:48:02;;;;;;;5.60;1.48;;;19.00;99.90;;;;;;4992880;28;20030;-90
2023/08/25 07:50:28;;;;;;;7.00;1.60;;;19.10;99.90;;;;;;5014286;28;20033;-89
2023/08/25 07:52:54;;;;;;;5.75;1.27;;;19.10;99.90;;;;;;5028018;28;20261;-90
2023/08/25 07:55:20;;;;;;;3.60;1.45;;;19.10;99.90;;;;;;5029254;28;20029;-90
2023/08/25 07:57:47;;;;;;;6.93;1.33;;;19.20;99.90;;;;;;5028258;28;20049;-91
2023/08/25 08:00:15;;;;;;;5.25;1.20;;;19.30;99.90;;;;;;5008014;28;20509;-92
2023/08/25 08:02:49;;;;;;;3.25;1.02;;;19.40;99.90;;;;;;5008421;28;20479;-91
2023/08/25 08:05:18;;;;;;;6.80;1.30;;;19.40;99.90;;;;;;5009354;28;20474;-89
2023/08/25 08:07:45;;;;;;;3.60;1.10;;;19.40;99.90;;;;;;5021013;28;20060;-92
2023/08/25 08:10:11;;;;;;;4.30;1.50;;;19.50;99.90;;;;;;5011427;28;20486;-91
2023/08/25 08:12:38;;;;;;;3.95;1.10;;;19.50;99.90;;;;;;5011610;28;20032;-92
2023/08/25 08:15:06;;;;;;;2.43;0.97;;;19.60;99.90;;;;;;5029961;28;20455;-90
2023/08/25 08:17:31;;;;;;;5.40;1.40;;;19.80;99.90;;;;;;5033270;28;20493;-90
2023/08/25 08:19:57;;;;;;;3.40;1.13;;;19.80;99.90;;;;;;5032599;28;20252;-91
2023/08/25 08:22:23;;;;;;;8.25;1.50;;;19.70;99.90;;;;;;5030823;28;20033;-91
2023/08/25 08:24:50;;;;;;;3.20;1.10;;;19.60;99.90;;;;;;5014336;28;20048;-90
2023/08/25 08:27:17;;;;;;;5.65;1.30;;;19.60;99.90;;;;;;5032444;28;20064;-91
2023/08/25 08:29:44;;;;;;;8.13;1.57;;;19.50;99.90;;;;;;5032366;28;20057;-91
2023/08/25 08:32:10;;;;;;;2.90;1.17;;;19.70;99.90;;;;;;5014770;28;20040;-92
2023/08/25 08:34:36;;;;;;;1.85;1.00;;;19.70;99.90;;;;;;5015829;28;20389;-90
2023/08/25 08:37:05;;;;;;;4.88;1.52;;;19.70;99.90;;;;;;5014928;28;20184;-91
2023/08/25 08:39:34;;;;;;;6.18;1.10;;;19.70;99.90;;;;;;5030765;28;20025;-92
2023/08/25 08:42:03;;;;;;;6.25;1.13;;;19.80;99.90;;;;;;5032304;28;20064;-91
2023/08/25 08:44:35;;;;;;;5.05;1.20;;;19.70;99.90;;;;;;5032286;28;20033;-90
2023/08/25 08:47:03;;;;;;;3.10;1.25;;;19.80;99.90;;;;;;5032184;28;20018;-90
2023/08/25 08:49:30;;;;;;;2.92;1.25;;;19.90;99.90;;;;;;5014445;28;20034;-90
2023/08/25 08:51:58;;;;;;;7.05;1.40;;;20.00;99.90;;;;;;5032241;28;20560;-90
2023/08/25 08:54:27;;;;;;;4.93;1.85;;;20.10;99.90;;;;;;4999055;28;20026;-90
2023/08/25 08:56:54;;;;;;;2.00;1.20;;;20.20;99.90;;;;;;5012243;28;20057;-90
2023/08/25 08:59:20;;;;;;;7.38;2.03;;;20.30;99.90;;;;;;4994611;28;20113;-91
2023/08/25 09:01:48;;;;;;;4.53;1.38;;;20.40;99.90;;;;;;4994919;28;20026;-91
2023/08/25 09:04:22;;;;;;;2.97;1.30;;;20.60;99.90;;;;;;5024281;28;20533;-90
2023/08/25 09:06:51;;;;;;;4.07;1.40;;;20.60;99.90;;;;;;5031928;28;20037;-91
2023/08/25 09:09:19;;;;;;;2.13;1.33;;;20.50;99.90;;;;;;5014011;28;20025;-91
2023/08/25 09:11:48;;;;;;;2.83;1.40;;;20.30;99.90;;;;;;5014009;28;20485;-90
2023/08/25 09:14:23;;;;;;;6.50;1.65;;;20.40;99.90;;;;;;5031741;28;20029;-92
2023/08/25 09:16:50;;;;;;;5.00;1.90;;;20.50;99.90;;;;;;5031623;28;20029;-91
2023/08/25 09:19:16;;;;;;;5.80;1.50;;;20.60;99.90;;;;;;5030449;28;20049;-90
2023/08/25 09:21:45;;;;;;;3.95;1.25;;;20.60;99.90;;;;;;5031509;28;20068;-91
2023/08/25 09:24:18;;;;;;;4.30;1.40;;;20.60;99.90;;;;;;5031410;28;20018;-91
2023/08/25 09:26:43;;;;;;;3.25;1.27;;;20.60;99.90;;;;;;5031112;28;20109;-90
2023/08/25 09:29:12;;;;;;;5.18;1.35;;;20.50;99.90;;;;;;5013533;28;20124;-92
2023/08/25 09:31:38;;;;;;;4.75;1.38;;;20.30;99.90;;;;;;5014281;28;20098;-90
2023/08/25 09:34:08;;;;;;;3.88;1.30;;;20.20;99.90;;;;;;5030747;28;20025;-90
2023/08/25 09:36:34;;;;;;;2.78;1.13;;;20.20;99.90;;;;;;5014017;28;20401;-89
2023/08/25 09:39:01;;;;;;;3.50;1.70;;;20.40;99.90;;;;;;5031132;28;20017;-91
2023/08/25 09:41:28;;;;;;;4.40;1.60;;;20.60;99.90;;;;;;5013605;28;20028;-90
2023/08/25 09:43:59;;;;;;;4.73;1.30;;;20.70;99.90;;;;;;5013562;28;20036;-91
2023/08/25 09:46:32;;;;;;;4.80;1.15;;;20.80;99.90;;;;;;5031014;28;20260;-90
2023/08/25 09:49:14;;;;;;;6.93;1.85;;;20.80;99.90;;;;;;5011939;28;20026;-90
2023/08/25 09:51:44;;;;;;;5.07;1.70;;;20.80;99.90;;;;;;5012460;28;20070;-91
2023/08/25 09:54:12;;;;;;;3.08;1.20;;;20.90;99.90;;;;;;5013284;28;20033;-91
2023/08/25 09:56:39;;;;;;;3.17;1.90;;;20.90;99.90;;;;;;5031598;28;20025;-90
2023/08/25 09:59:07;;;;;;;5.45;1.80;;;20.90;99.90;;;;;;5031332;28;20033;-90
2023/08/25 10:01:43;;;;;;;3.83;1.00;;;20.90;99.90;;;;;;5012895;28;20123;-90
2023/08/25 10:04:09;;;;;;;4.20;1.20;;;20.90;99.90;;;;;;5030257;28;20275;-91
2023/08/25 10:06:39;;;;;;;6.22;1.88;;;20.90;99.90;;;;;;5030511;28;20100;-89
2023/08/25 10:09:06;;;;;;;4.95;1.02;;;20.80;99.90;;;;;;5012775;28;20025;-90
2023/08/25 10:11:41;;;;;;;6.78;1.40;;;20.80;99.90;;;;;;5012582;28;20527;-90
2023/08/25 10:14:10;;;;;;;4.25;2.42;;;20.90;99.90;;;;;;5029940;28;20067;-90
2023/08/25 10:16:45;;;;;;;5.18;1.13;;;21.10;99.90;;;;;;5030995;28;20543;-90
2023/08/25 10:19:14;;;;;;;3.53;1.10;;;21.20;99.90;;;;;;5031057;28;20485;-91
2023/08/25 10:21:47;;;;;;;5.40;1.17;;;21.30;99.90;;;;;;5031214;28;20026;-90
2023/08/25 10:24:14;;;;;;;7.68;1.48;;;21.30;99.90;;;;;;5011937;28;20034;-90
2023/08/25 10:26:42;;;;;;;4.20;1.73;;;21.30;99.90;;;;;;5013314;28;20029;-90
2023/08/25 10:29:09;;;;;;;6.18;1.40;;;21.20;99.90;;;;;;5013309;28;20037;-91
2023/08/25 10:31:34;;;;;;;6.07;1.27;;;21.20;99.90;;;;;;5029911;28;20120;-90
2023/08/25 10:34:00;;;;;;;6.15;1.30;;;21.30;99.90;;;;;;5030015;28;20104;-90
2023/08/25 10:36:26;;;;;;;5.90;1.58;;;21.40;99.90;;;;;;5029836;28;20477;-89
2023/08/25 10:38:54;;;;;;;5.65;2.38;;;21.40;99.90;;;;;;5011719;28;20503;-90
2023/08/25 10:41:23;;;;;;;4.40;1.60;;;21.40;99.90;;;;;;5012263;28;20026;-91
2023/08/25 10:43:53;;;;;;;9.07;1.70;;;21.40;99.90;;;;;;5012388;28;20025;-91
2023/08/25 10:46:20;;;;;;;4.35;1.40;;;21.50;99.90;;;;;;5012331;28;20083;-90
2023/08/25 10:48:50;;;;;;;8.13;1.50;;;21.50;99.90;;;;;;5012225;28;20461;-90
2023/08/25 10:51:18;;;;;;;7.07;1.40;;;21.50;99.90;;;;;;5011985;28;20040;-91
2023/08/25 10:53:51;;;;;;;4.93;1.48;;;21.40;99.90;;;;;;5010975;28;20030;-90
2023/08/25 10:56:17;;;;;;;1.63;0.93;;;21.50;99.90;;;;;;5029231;28;20055;-91
2023/08/25 10:59:06;;;;;;;2.85;1.23;;;21.60;99.90;;;;;;5029909;28;20485;-89
2023/08/25 11:01:38;;;;;;;5.78;1.70;;;21.80;99.90;;;;;;5011898;28;20472;-89
2023/08/25 11:04:11;;;;;;;4.35;1.35;;;21.90;99.90;;;;;;5029634;28;20088;-90
2023/08/25 11:06:46;;;;;;;5.82;1.38;;;21.70;99.90;;;;;;5011853;28;20052;-89
2023/08/25 11:09:18;;;;;;;4.47;1.35;;;21.60;99.90;;;;;;5011878;28;20037;-91
2023/08/25 11:11:47;;;;;;;3.63;1.30;;;21.40;99.90;;;;;;5029655;28;20065;-90
2023/08/25 11:14:14;;;;;;;5.15;1.42;;;21.50;99.90;;;;;;5012521;28;20032;-90
2023/08/25 11:16:40;;;;;;;4.20;1.30;;;21.40;99.90;;;;;;5012755;28;20024;-91
2023/08/25 11:19:10;;;;;;;6.18;1.35;;;21.30;99.90;;;;;;5029470;28;20452;-90
2023/08/25 11:21:35;;;;;;;3.50;1.33;;;21.40;99.90;;;;;;5029675;28;20025;-90
2023/08/25 11:24:01;;;;;;;3.78;1.40;;;21.40;99.90;;;;;;5028344;28;20029;-91
2023/08/25 11:26:27;;;;;;;5.90;1.38;;;21.60;99.90;;;;;;5029563;28;20104;-91
2023/08/25 11:28:53;;;;;;;5.70;1.83;;;21.70;99.90;;;;;;5011693;28;20069;-91
2023/08/25 11:31:21;;;;;;;3.58;1.50;;;21.80;99.90;;;;;;5029288;28;20061;-90
2023/08/25 11:33:46;;;;;;;4.25;1.30;;;21.70;99.90;;;;;;5011719;28;20035;-91
2023/08/25 11:36:15;;;;;;;4.85;1.48;;;21.60;99.90;;;;;;5030339;28;20112;-90
2023/08/25 11:38:41;;;;;;;2.47;1.15;;;21.60;99.90;;;;;;5008378;28;20045;-92
2023/08/25 11:41:07;;;;;;;3.70;1.20;;;21.50;99.90;;;;;;5026826;28;20053;-91
2023/08/25 11:43:33;;;;;;;2.47;1.10;;;21.50;99.90;;;;;;5011497;28;20021;-90
2023/08/25 11:45:59;;;;;;;4.35;1.20;;;21.40;99.90;;;;;;5011956;28;20033;-92
2023/08/25 11:48:25;;;;;;;2.70;1.10;;;21.40;99.90;;;;;;5011801;28;20032;-91
2023/08/25 11:50:51;;;;;;;3.90;0.98;;;21.50;99.90;;;;;;5032388;28;20041;-91
2023/08/25 11:53:17;;;;;;;5.05;1.10;;;21.60;99.90;;;;;;5014316;28;20026;-90
2023/08/25 11:55:57;;;;;;;3.10;1.13;;;21.60;99.90;;;;;;5032643;28;20093;-89
2023/08/25 11:58:32;;;;;;;3.60;1.05;;;21.70;99.90;;;;;;5015193;28;20029;-92
2023/08/25 12:01:06;;;;;;;2.58;1.20;;;21.60;99.90;;;;;;5015137;28;20029;-91
2023/08/25 12:03:33;;;;;;;11.95;1.10;;;21.60;99.90;;;;;;5015341;28;20021;-93
2023/08/25 12:06:03;;;;;;;2.83;0.98;;;21.60;99.90;;;;;;5033118;28;20432;-91
2023/08/25 12:08:29;;;;;;;2.42;1.10;;;21.70;99.90;;;;;;5014521;28;20063;-91
2023/08/25 12:10:55;;;;;;;3.17;1.10;;;21.80;99.90;;;;;;5032481;28;20079;-91
2023/08/25 12:13:31;;;;;;;1.92;1.10;;;21.90;99.90;;;;;;5014905;28;20021;-90
2023/08/25 12:15:58;;;;;;;6.43;2.35;;;21.80;99.90;;;;;;5014846;28;20030;-91
2023/08/25 12:18:34;;;;;;;1.27;1.02;;;21.70;99.90;;;;;;5032785;28;20017;-90
2023/08/25 12:21:01;;;;;;;5.00;0.90;;;21.70;99.90;;;;;;5014977;28;20036;-90
2023/08/25 12:23:33;;;;;;;3.40;1.30;;;21.70;99.90;;;;;;5013963;28;20014;-90
2023/08/25 12:25:58;;;;;;;3.58;1.27;;;21.80;99.90;;;;;;5013935;28;20037;-90
2023/08/25 12:28:24;;;;;;;4.32;1.20;;;21.80;99.90;;;;;;5032064;28;20481;-90
2023/08/25 12:30:49;;;;;;;2.13;1.30;;;21.80;99.90;;;;;;5014706;28;20042;-92
2023/08/25 12:33:15;;;;;;;5.55;1.20;;;21.90;99.90;;;;;;5032227;28;20100;-89
2023/08/25 12:35:41;;;;;;;5.45;1.10;;;22.00;99.90;;;;;;5032263;28;20030;-90
2023/08/25 12:38:06;;;;;;;2.15;1.00;;;22.10;99.90;;;;;;5032164;28;20021;-91
2023/08/25 12:40:32;;;;;;;6.40;0.93;;;22.20;99.90;;;;;;5032303;28;20048;-91
2023/08/25 12:42:58;;;;;;;0.80;0.80;;;22.20;99.90;;;;;;5032135;28;20393;-91
2023/08/25 12:45:23;;;;;;;4.32;1.10;;;22.40;99.90;;;;;;5032059;28;20384;-91
2023/08/25 12:47:50;;;;;;;4.30;1.00;;;22.50;99.90;;;;;;5032026;28;20072;-92
2023/08/25 12:50:16;;;;;;;4.57;1.15;;;22.60;99.90;;;;;;5030756;28;20045;-90